Pagina principale
METAR-TAF:

METAR-TAF

Aeroporti :

Vladivostok, Russia

Aeroporto di Vladivostok

latitudine: 43-07N, longitudine: 131-56E, altezza: 184 m

Osservazione

Il bollettino è stato emesso 26 minuti fa, alle 21:00 UTC
Vento calmo
Temperature -21°C
Umidità 77%
Pressione 1031 hPa
Visibilità 10 km o più

METAR: UHWW 242100Z 00000MPS 9999 NSC M21/M24 Q1031 R25L/0///70 NOSIG RMK QFE772

Ora: 07:26 (21:26 UTC)

Previsione

Il bollettino è stato emesso 1 ora e 26 minuti fa, alle 20:00 UTC
Previsione valida dal 24 alle 21 UTC al 25 alle 21 UTC
Vento 6 kt da nord/nord-est
Visibilità: 5000 m
foschia, fumo
A partire da 25 alle 0000 UTC
Vento 6 kt da sud/sud-est
Visibilità 10 km o più
Nubi sparse ad un'altezza di 3000 ft

TAF: UHWW 242000Z 2421/2521 02003MPS 5000 HZ FU NSC FM250000 15003MPS 9999 SCT030

Osservazioni e previsioni meteorologiche di più di 4000 aeroporti (messaggi METAR e TAF).

Le stazioni disponibili sono rappresentate dai dischi gialli e rossi sulla carta.

Puntare il mouse per vedere il nome della stazione.

Clicca sopra per visualizzare le osservazioni e previsioni meteorologiche.

Per cambiare la mappa : fare clic sui pulsanti verdi con una croce nera per ingrandire, il pulsante verde con un trattino per diminuire, o sulla freccia verde per le mappe adiacenti.


METAR-TAF: